createdAt,value
2023-03-06T00:02:02.530Z,9.80
2023-03-06T00:04:39.207Z,9.90
2023-03-06T00:07:15.728Z,9.90
2023-03-06T00:09:52.460Z,9.90
2023-03-06T00:12:31.928Z,9.90
2023-03-06T00:15:11.552Z,9.90
2023-03-06T00:17:50.521Z,9.90
2023-03-06T00:20:28.257Z,9.90
2023-03-06T00:23:05.232Z,9.90
2023-03-06T00:25:44.591Z,9.84
2023-03-06T00:28:21.453Z,9.80
2023-03-06T00:30:58.188Z,9.80
2023-03-06T00:33:33.936Z,9.80
2023-03-06T00:36:14.264Z,9.70
2023-03-06T00:38:51.455Z,9.70
2023-03-06T00:41:28.068Z,9.66
2023-03-06T00:44:06.441Z,9.60
2023-03-06T00:46:43.433Z,9.60
2023-03-06T00:49:23.073Z,9.60
2023-03-06T00:51:59.409Z,9.60
2023-03-06T00:54:35.069Z,9.60
2023-03-06T00:57:13.135Z,9.70
2023-03-06T00:59:50.405Z,9.70
2023-03-06T01:02:27.282Z,9.76
2023-03-06T01:05:04.023Z,9.70
2023-03-06T01:07:40.444Z,9.72
2023-03-06T01:10:20.735Z,9.70
2023-03-06T01:12:57.636Z,9.70
2023-03-06T01:15:36.205Z,9.70
2023-03-06T01:18:12.950Z,9.70
2023-03-06T01:20:49.292Z,9.70
2023-03-06T01:23:24.806Z,9.70
2023-03-06T01:26:01.148Z,9.70
2023-03-06T01:28:39.408Z,9.70
2023-03-06T01:31:17.893Z,9.70
2023-03-06T01:33:54.214Z,9.70
2023-03-06T01:36:31.387Z,9.60
2023-03-06T01:39:07.894Z,9.60
2023-03-06T01:41:44.557Z,9.54
2023-03-06T01:44:21.171Z,9.50
2023-03-06T01:47:00.748Z,9.50
2023-03-06T01:49:41.403Z,9.50
2023-03-06T01:52:21.016Z,9.50
2023-03-06T01:55:03.541Z,9.50
2023-03-06T01:57:45.469Z,9.50
2023-03-06T02:00:32.526Z,9.50
2023-03-06T02:03:16.880Z,9.50
2023-03-06T02:05:53.753Z,9.50
2023-03-06T02:08:32.399Z,9.50
2023-03-06T02:11:16.776Z,9.40
2023-03-06T02:13:54.668Z,9.40
2023-03-06T02:16:33.906Z,9.40
2023-03-06T02:19:18.980Z,9.40
2023-03-06T02:21:56.609Z,9.40
2023-03-06T02:24:43.035Z,9.40
2023-03-06T02:27:23.938Z,9.50
2023-03-06T02:30:01.928Z,9.40
2023-03-06T02:32:40.244Z,9.40
2023-03-06T02:35:28.163Z,9.40
2023-03-06T02:38:09.503Z,9.40
2023-03-06T02:40:46.676Z,9.40
2023-03-06T02:43:28.051Z,9.44
2023-03-06T02:46:04.999Z,9.48
2023-03-06T02:48:42.392Z,9.46
2023-03-06T02:51:18.646Z,9.46
2023-03-06T02:53:55.826Z,9.40
2023-03-06T02:56:32.355Z,9.40
2023-03-06T02:59:09.783Z,9.40
2023-03-06T03:01:47.962Z,9.40
2023-03-06T03:04:24.262Z,9.40
2023-03-06T03:07:01.563Z,9.48
2023-03-06T03:09:40.962Z,9.50
2023-03-06T03:12:22.683Z,9.50
2023-03-06T03:15:01.102Z,9.50
2023-03-06T03:17:40.509Z,9.50
2023-03-06T03:20:22.539Z,9.40
2023-03-06T03:23:00.836Z,9.40
2023-03-06T03:25:37.730Z,9.38
2023-03-06T03:28:17.456Z,9.30
2023-03-06T03:30:55.003Z,9.30
2023-03-06T03:33:32.038Z,9.30
2023-03-06T03:36:11.419Z,9.30
2023-03-06T03:38:51.477Z,9.30
2023-03-06T03:41:27.868Z,9.30
2023-03-06T03:44:04.517Z,9.32
2023-03-06T03:46:41.994Z,9.38
2023-03-06T03:49:22.569Z,9.40
2023-03-06T03:52:00.178Z,9.40
2023-03-06T03:54:39.711Z,9.40
2023-03-06T03:57:16.162Z,9.40
2023-03-06T03:59:55.516Z,9.50
2023-03-06T04:02:50.707Z,9.50
2023-03-06T04:05:39.355Z,9.50
2023-03-06T04:08:17.854Z,9.48
2023-03-06T04:10:56.394Z,9.50
2023-03-06T04:13:33.243Z,9.50
2023-03-06T04:16:12.160Z,9.50
2023-03-06T04:18:49.538Z,9.50
2023-03-06T04:21:27.923Z,9.50
2023-03-06T04:24:04.192Z,9.50
2023-03-06T04:26:41.789Z,9.48
2023-03-06T04:29:18.605Z,9.44
2023-03-06T04:31:55.595Z,9.44
2023-03-06T04:34:33.061Z,9.50
2023-03-06T04:37:11.547Z,9.50
2023-03-06T04:39:48.380Z,9.50
2023-03-06T04:42:25.411Z,9.50
2023-03-06T04:45:02.490Z,9.50
2023-03-06T04:47:39.097Z,9.50
2023-03-06T04:50:19.831Z,9.50
2023-03-06T04:52:58.410Z,9.50
2023-03-06T04:55:34.801Z,9.50
2023-03-06T04:58:12.474Z,9.50
2023-03-06T05:00:49.624Z,9.42
2023-03-06T05:03:26.584Z,9.48
2023-03-06T05:06:04.090Z,9.44
2023-03-06T05:08:39.851Z,9.48
2023-03-06T05:11:16.953Z,9.42
2023-03-06T05:13:54.085Z,9.48
2023-03-06T05:16:32.202Z,9.50
2023-03-06T05:19:11.344Z,9.44
2023-03-06T05:21:48.531Z,9.40
2023-03-06T05:24:26.069Z,9.34
2023-03-06T05:27:03.094Z,9.20
2023-03-06T05:29:40.700Z,9.10
2023-03-06T05:35:18.570Z,9.10
2023-03-06T05:37:55.583Z,9.10
2023-03-06T05:40:32.822Z,9.00
2023-03-06T05:43:09.487Z,8.98
2023-03-06T05:45:47.472Z,8.90
2023-03-06T05:48:24.138Z,8.92
2023-03-06T05:51:05.448Z,9.00
2023-03-06T05:53:42.037Z,9.00
2023-03-06T05:56:19.200Z,9.10
2023-03-06T05:58:56.948Z,9.10
2023-03-06T06:01:35.034Z,9.20
2023-03-06T06:04:12.903Z,9.20
2023-03-06T06:06:53.810Z,9.30
2023-03-06T06:09:31.537Z,9.30
2023-03-06T06:12:12.598Z,9.30
2023-03-06T06:14:49.915Z,9.20
2023-03-06T06:17:26.583Z,9.20
2023-03-06T06:20:03.928Z,9.20
2023-03-06T06:22:43.288Z,9.20
2023-03-06T06:25:20.480Z,9.10
2023-03-06T06:27:59.927Z,9.00
2023-03-06T06:30:36.703Z,8.90
2023-03-06T06:33:13.862Z,8.80
2023-03-06T06:35:51.580Z,8.80
2023-03-06T06:38:28.777Z,8.82
2023-03-06T06:44:08.527Z,8.90
2023-03-06T06:49:43.940Z,9.00
2023-03-06T06:52:21.330Z,9.10
2023-03-06T06:54:59.430Z,9.10
2023-03-06T06:57:36.182Z,9.20
2023-03-06T07:00:19.753Z,9.20
2023-03-06T07:02:56.770Z,9.30
2023-03-06T07:05:33.848Z,9.30
2023-03-06T07:08:11.269Z,9.40
2023-03-06T07:10:49.200Z,9.40
2023-03-06T07:13:25.576Z,9.50
2023-03-06T07:16:02.334Z,9.48
2023-03-06T07:18:40.708Z,9.50
2023-03-06T07:21:17.378Z,9.50
2023-03-06T07:23:54.550Z,9.52
2023-03-06T07:26:34.501Z,9.60
2023-03-06T07:29:12.410Z,9.68
2023-03-06T07:31:49.161Z,9.70
2023-03-06T07:34:26.485Z,9.70
2023-03-06T07:37:03.642Z,9.70
2023-03-06T07:39:41.120Z,9.80
2023-03-06T07:42:21.204Z,9.86
2023-03-06T07:45:04.766Z,9.90
2023-03-06T07:47:42.314Z,9.90
2023-03-06T07:50:19.703Z,10.00
2023-03-06T07:52:57.780Z,10.00
2023-03-06T07:55:35.195Z,10.08
2023-03-06T07:58:12.182Z,10.10
2023-03-06T08:00:48.904Z,10.10
2023-03-06T08:03:25.221Z,10.20
2023-03-06T08:06:11.121Z,10.20
2023-03-06T08:08:50.507Z,10.30
2023-03-06T08:11:34.101Z,10.30
2023-03-06T08:14:11.079Z,10.30
2023-03-06T08:16:47.450Z,10.30
2023-03-06T08:19:25.211Z,10.40
2023-03-06T08:22:01.863Z,10.40
2023-03-06T08:24:39.633Z,10.40
2023-03-06T08:27:16.264Z,10.50
2023-03-06T08:29:52.860Z,10.50
2023-03-06T08:32:33.261Z,10.50
2023-03-06T08:35:14.268Z,10.60
2023-03-06T08:37:51.270Z,10.60
2023-03-06T08:40:30.805Z,10.68
2023-03-06T08:43:13.981Z,10.70
2023-03-06T08:45:57.583Z,10.70
2023-03-06T08:48:34.907Z,10.70
2023-03-06T08:51:13.625Z,10.74
2023-03-06T08:53:50.907Z,10.80
2023-03-06T08:56:30.133Z,10.80
2023-03-06T08:59:09.676Z,10.90
2023-03-06T09:01:47.124Z,10.90
2023-03-06T09:04:28.058Z,11.00
2023-03-06T09:07:04.853Z,11.02
2023-03-06T09:09:41.915Z,11.10
2023-03-06T09:12:19.527Z,11.10
2023-03-06T09:14:56.403Z,11.20
2023-03-06T09:17:33.265Z,11.20
2023-03-06T09:20:12.206Z,11.26
2023-03-06T09:22:49.125Z,11.30
2023-03-06T09:25:26.121Z,11.30
2023-03-06T09:28:11.361Z,11.40
2023-03-06T09:30:49.262Z,11.50
2023-03-06T09:33:28.854Z,11.60
2023-03-06T09:36:07.945Z,11.70
2023-03-06T09:38:44.799Z,11.78
2023-03-06T09:41:33.631Z,11.80
2023-03-06T09:44:18.766Z,11.90
2023-03-06T09:47:27.452Z,11.98
2023-03-06T09:50:21.904Z,12.10
2023-03-06T09:53:19.704Z,12.12
2023-03-06T09:56:09.220Z,12.14
2023-03-06T09:58:53.728Z,12.20
2023-03-06T10:01:33.553Z,12.20
2023-03-06T10:04:34.420Z,12.30
2023-03-06T10:07:21.596Z,12.40
2023-03-06T10:10:03.735Z,12.50
2023-03-06T10:12:48.701Z,12.70
2023-03-06T10:15:28.758Z,12.76
2023-03-06T10:18:07.606Z,12.80
2023-03-06T10:21:00.936Z,12.80
2023-03-06T10:23:57.625Z,12.80
2023-03-06T10:26:42.528Z,12.80
2023-03-06T10:30:00.092Z,12.70
2023-03-06T10:32:50.631Z,12.70
2023-03-06T10:35:33.721Z,12.60
2023-03-06T10:38:27.479Z,12.60
2023-03-06T10:41:31.171Z,12.58
2023-03-06T10:44:29.955Z,12.52
2023-03-06T10:47:30.838Z,12.50
2023-03-06T10:50:22.657Z,12.50
2023-03-06T10:53:09.705Z,12.50
2023-03-06T10:55:56.465Z,12.50
2023-03-06T10:58:36.286Z,12.50
2023-03-06T11:01:26.034Z,12.50
2023-03-06T11:04:27.812Z,12.50
2023-03-06T11:07:23.283Z,12.50
2023-03-06T11:10:19.449Z,12.50
2023-03-06T11:13:20.790Z,12.50
2023-03-06T11:16:04.776Z,12.56
2023-03-06T11:18:57.232Z,12.60
2023-03-06T11:21:37.772Z,12.60
2023-03-06T11:24:22.297Z,12.60
2023-03-06T11:27:05.902Z,12.70
2023-03-06T11:29:47.624Z,12.70
2023-03-06T11:32:30.706Z,12.80
2023-03-06T11:35:14.248Z,12.90
2023-03-06T11:37:58.878Z,12.90
2023-03-06T11:40:51.723Z,12.90
2023-03-06T11:43:38.651Z,12.90
2023-03-06T11:46:27.796Z,12.90
2023-03-06T11:49:22.723Z,13.00
2023-03-06T11:52:07.289Z,13.08
2023-03-06T11:54:43.926Z,13.18
2023-03-06T11:57:27.275Z,13.30
2023-03-06T12:00:25.569Z,13.40
2023-03-06T12:03:34.005Z,13.58
2023-03-06T12:06:19.763Z,13.70
2023-03-06T12:09:22.960Z,13.80
2023-03-06T12:12:21.675Z,13.80
2023-03-06T12:15:25.889Z,13.80
2023-03-06T12:18:31.872Z,13.70
2023-03-06T12:21:19.325Z,13.60
2023-03-06T12:24:37.216Z,13.60
2023-03-06T12:27:29.760Z,13.64
2023-03-06T12:30:30.445Z,13.70
2023-03-06T12:33:23.071Z,13.86
2023-03-06T12:36:36.101Z,14.00
2023-03-06T12:39:38.672Z,14.10
2023-03-06T12:42:42.810Z,14.20
2023-03-06T12:45:44.338Z,14.20
2023-03-06T12:48:28.471Z,14.30
2023-03-06T12:51:08.099Z,14.46
2023-03-06T12:53:47.157Z,14.60
2023-03-06T12:56:25.225Z,14.60
2023-03-06T12:59:03.004Z,14.50
2023-03-06T13:02:07.664Z,14.48
2023-03-06T13:05:36.918Z,14.40
2023-03-06T13:08:46.734Z,14.40
2023-03-06T13:12:01.059Z,14.40
2023-03-06T13:15:07.067Z,14.50
2023-03-06T13:17:46.557Z,14.60
2023-03-06T13:20:45.990Z,14.70
2023-03-06T13:24:17.558Z,14.80
2023-03-06T13:27:01.120Z,14.90
2023-03-06T13:30:26.067Z,14.90
2023-03-06T13:33:03.302Z,15.00
2023-03-06T13:36:01.924Z,15.00
2023-03-06T13:39:05.144Z,15.06
2023-03-06T13:41:58.857Z,15.10
2023-03-06T13:44:54.034Z,15.10
2023-03-06T13:48:15.504Z,15.20
2023-03-06T13:50:48.557Z,15.20
2023-03-06T13:54:11.651Z,15.30
2023-03-06T13:57:24.905Z,15.30
2023-03-06T14:00:40.152Z,15.20
2023-03-06T14:04:19.931Z,15.20
2023-03-06T14:07:21.425Z,15.10
2023-03-06T14:10:22.665Z,15.10
2023-03-06T14:13:30.007Z,15.10
2023-03-06T14:16:20.641Z,15.10
2023-03-06T14:19:00.012Z,15.16
2023-03-06T14:21:48.209Z,15.20
2023-03-06T14:24:37.866Z,15.20
2023-03-06T14:27:21.948Z,15.28
2023-03-06T14:30:10.374Z,15.20
2023-03-06T14:32:47.601Z,15.20
2023-03-06T14:35:40.447Z,15.20
2023-03-06T14:38:20.265Z,15.20
2023-03-06T14:40:58.544Z,15.20
2023-03-06T14:43:35.430Z,15.20
2023-03-06T14:46:21.140Z,15.12
2023-03-06T14:49:01.849Z,15.10
2023-03-06T14:51:44.446Z,15.10
2023-03-06T14:54:29.014Z,15.02
2023-03-06T14:57:15.744Z,15.02
2023-03-06T14:59:58.220Z,15.10
2023-03-06T15:02:36.454Z,15.10
2023-03-06T15:05:22.979Z,15.10
2023-03-06T15:08:05.549Z,15.10
2023-03-06T15:10:44.461Z,15.12
2023-03-06T15:13:31.163Z,15.20
2023-03-06T15:16:25.071Z,15.10
2023-03-06T15:19:07.187Z,15.10
2023-03-06T15:21:48.506Z,15.10
2023-03-06T15:24:42.526Z,15.02
2023-03-06T15:27:33.004Z,15.08
2023-03-06T15:30:29.782Z,15.10
2023-03-06T15:33:32.034Z,15.10
2023-03-06T15:36:21.887Z,15.06
2023-03-06T15:38:58.455Z,15.00
2023-03-06T15:41:39.960Z,15.00
2023-03-06T15:44:19.948Z,15.00
2023-03-06T15:47:08.520Z,15.00
2023-03-06T15:49:52.620Z,15.00
2023-03-06T15:52:29.461Z,14.94
2023-03-06T15:55:07.169Z,14.90
2023-03-06T15:57:49.382Z,14.90
2023-03-06T16:00:32.919Z,14.90
2023-03-06T16:03:09.968Z,14.90
2023-03-06T16:05:47.507Z,14.80
2023-03-06T16:08:25.619Z,14.80
2023-03-06T16:11:03.166Z,14.78
2023-03-06T16:13:41.613Z,14.70
2023-03-06T16:16:27.287Z,14.70
2023-03-06T16:19:06.065Z,14.70
2023-03-06T16:21:47.083Z,14.70
2023-03-06T16:24:24.148Z,14.70
2023-03-06T16:27:04.920Z,14.60
2023-03-06T16:29:42.576Z,14.60
2023-03-06T16:32:19.715Z,14.52
2023-03-06T16:34:57.100Z,14.50
2023-03-06T16:37:33.877Z,14.48
2023-03-06T16:40:23.426Z,14.42
2023-03-06T16:43:00.490Z,14.40
2023-03-06T16:45:40.988Z,14.40
2023-03-06T16:48:21.208Z,14.40
2023-03-06T16:50:57.850Z,14.30
2023-03-06T16:53:35.066Z,14.30
2023-03-06T16:56:16.688Z,14.30
2023-03-06T16:58:53.822Z,14.22
2023-03-06T17:01:30.772Z,14.20
2023-03-06T17:04:07.850Z,14.20
2023-03-06T17:06:45.170Z,14.10
2023-03-06T17:09:24.018Z,14.10
2023-03-06T17:12:01.372Z,14.08
2023-03-06T17:14:40.846Z,14.00
2023-03-06T17:17:16.518Z,14.00
2023-03-06T17:19:55.237Z,13.96
2023-03-06T17:22:35.268Z,13.90
2023-03-06T17:25:14.380Z,13.90
2023-03-06T17:27:51.002Z,13.80
2023-03-06T17:30:28.589Z,13.80
2023-03-06T17:33:06.920Z,13.70
2023-03-06T17:35:43.787Z,13.50
2023-03-06T17:38:20.458Z,13.40
2023-03-06T17:40:57.392Z,13.32
2023-03-06T17:43:34.933Z,13.30
2023-03-06T17:46:15.457Z,13.20
2023-03-06T17:48:51.789Z,13.20
2023-03-06T17:51:28.693Z,13.10
2023-03-06T17:54:06.240Z,13.10
2023-03-06T17:56:43.600Z,13.10
2023-03-06T17:59:20.835Z,13.00
2023-03-06T18:02:00.326Z,13.00
2023-03-06T18:04:37.734Z,12.90
2023-03-06T18:07:15.716Z,12.74
2023-03-06T18:09:53.062Z,12.68
2023-03-06T18:12:29.749Z,12.60
2023-03-06T18:15:06.370Z,12.50
2023-03-06T18:17:44.018Z,12.50
2023-03-06T18:20:23.098Z,12.40
2023-03-06T18:23:03.921Z,12.40
2023-03-06T18:25:41.729Z,12.38
2023-03-06T18:28:18.392Z,12.30
2023-03-06T18:30:55.214Z,12.20
2023-03-06T18:33:33.035Z,12.20
2023-03-06T18:36:12.431Z,12.20
2023-03-06T18:38:48.748Z,12.10
2023-03-06T18:41:26.897Z,12.10
2023-03-06T18:44:04.829Z,12.10
2023-03-06T18:46:43.199Z,12.00
2023-03-06T18:49:20.223Z,12.00
2023-03-06T18:51:58.614Z,12.00
2023-03-06T18:54:35.767Z,11.98
2023-03-06T18:57:13.811Z,11.90
2023-03-06T18:59:50.791Z,11.90
2023-03-06T19:02:28.678Z,11.80
2023-03-06T19:05:05.373Z,11.80
2023-03-06T19:07:42.766Z,11.80
2023-03-06T19:10:22.812Z,11.80
2023-03-06T19:12:59.471Z,11.80
2023-03-06T19:15:35.822Z,11.70
2023-03-06T19:18:13.802Z,11.70
2023-03-06T19:20:50.404Z,11.70
2023-03-06T19:23:27.487Z,11.62
2023-03-06T19:26:07.787Z,11.60
2023-03-06T19:28:46.844Z,11.60
2023-03-06T19:31:27.035Z,11.52
2023-03-06T19:34:05.913Z,11.50
2023-03-06T19:36:42.398Z,11.50
2023-03-06T19:39:19.719Z,11.50
2023-03-06T19:41:57.057Z,11.40
2023-03-06T19:44:35.087Z,11.40
2023-03-06T19:47:12.820Z,11.30
2023-03-06T19:49:50.580Z,11.30
2023-03-06T19:52:27.354Z,11.30
2023-03-06T19:55:03.966Z,11.30
2023-03-06T19:57:41.100Z,11.20
2023-03-06T20:00:24.424Z,11.20
2023-03-06T20:03:01.479Z,11.10
2023-03-06T20:05:38.762Z,11.10
2023-03-06T20:08:16.210Z,11.00
2023-03-06T20:10:53.389Z,11.00
2023-03-06T20:13:29.874Z,10.98
2023-03-06T20:16:13.265Z,10.90
2023-03-06T20:18:50.661Z,10.90
2023-03-06T20:21:27.912Z,10.90
2023-03-06T20:24:06.114Z,10.82
2023-03-06T20:26:42.877Z,10.80
2023-03-06T20:29:20.536Z,10.80
2023-03-06T20:32:00.606Z,10.70
2023-03-06T20:34:40.327Z,10.70
2023-03-06T20:37:17.575Z,10.68
2023-03-06T20:39:54.533Z,10.60
2023-03-06T20:42:31.250Z,10.60
2023-03-06T20:45:10.810Z,10.60
2023-03-06T20:47:47.635Z,10.60
2023-03-06T20:50:25.713Z,10.60
2023-03-06T20:53:03.536Z,10.60
2023-03-06T20:55:44.575Z,10.60
2023-03-06T20:58:21.436Z,10.60
2023-03-06T21:00:58.718Z,10.60
2023-03-06T21:03:36.819Z,10.60
2023-03-06T21:06:14.492Z,10.60
2023-03-06T21:08:51.210Z,10.50
2023-03-06T21:11:28.689Z,10.50
2023-03-06T21:14:05.365Z,10.50
2023-03-06T21:16:42.346Z,10.50
2023-03-06T21:19:21.172Z,10.50
2023-03-06T21:21:57.863Z,10.50
2023-03-06T21:24:35.103Z,10.40
2023-03-06T21:27:12.756Z,10.40
2023-03-06T21:29:50.202Z,10.30
2023-03-06T21:32:27.099Z,10.30
2023-03-06T21:35:04.274Z,10.30
2023-03-06T21:37:41.046Z,10.30
2023-03-06T21:40:20.617Z,10.28
2023-03-06T21:42:57.456Z,10.20
2023-03-06T21:45:35.007Z,10.20
2023-03-06T21:48:12.525Z,10.20
2023-03-06T21:50:48.479Z,10.20
2023-03-06T21:53:25.015Z,10.18
2023-03-06T21:56:03.972Z,10.10
2023-03-06T21:58:40.603Z,10.10
2023-03-06T22:01:21.524Z,10.10
2023-03-06T22:03:58.174Z,10.10
2023-03-06T22:06:36.202Z,10.10
2023-03-06T22:09:15.099Z,10.10
2023-03-06T22:11:52.355Z,10.10
2023-03-06T22:14:29.815Z,10.00
2023-03-06T22:17:07.481Z,10.00
2023-03-06T22:19:44.786Z,10.00
2023-03-06T22:22:22.448Z,9.94
2023-03-06T22:25:00.426Z,10.00
2023-03-06T22:27:38.973Z,9.96
2023-03-06T22:30:20.205Z,9.90
2023-03-06T22:33:00.273Z,9.90
2023-03-06T22:35:36.130Z,9.90
2023-03-06T22:38:13.259Z,9.90
2023-03-06T22:40:50.698Z,9.90
2023-03-06T22:43:27.459Z,9.90
2023-03-06T22:46:11.770Z,9.90
2023-03-06T22:48:48.473Z,9.88
2023-03-06T22:51:27.426Z,9.80
2023-03-06T22:54:03.501Z,9.80
2023-03-06T22:56:40.810Z,9.80
2023-03-06T22:59:17.344Z,9.80
2023-03-06T23:01:54.389Z,9.82
2023-03-06T23:04:32.448Z,9.80
2023-03-06T23:07:09.344Z,9.82
2023-03-06T23:09:47.025Z,9.90
2023-03-06T23:12:44.450Z,9.90
2023-03-06T23:15:40.106Z,9.80
2023-03-06T23:18:37.195Z,9.70
2023-03-06T23:21:33.328Z,9.60
2023-03-06T23:24:28.822Z,9.50
2023-03-06T23:27:05.766Z,9.50
2023-03-06T23:29:43.476Z,9.50
2023-03-06T23:32:20.524Z,9.50
2023-03-06T23:34:57.376Z,9.50
2023-03-06T23:37:34.385Z,9.50
2023-03-06T23:40:18.197Z,9.50
2023-03-06T23:42:54.357Z,9.50
2023-03-06T23:45:30.713Z,9.50
2023-03-06T23:48:10.034Z,9.50
2023-03-06T23:50:49.549Z,9.50
2023-03-06T23:53:26.628Z,9.50
2023-03-06T23:56:03.478Z,9.50
2023-03-06T23:58:43.317Z,9.50
